Hovedside
METAR-TAF:

METAR-TAF

Lufthavner :

Antakya, Tyrkia

breddegrad: 36-21-46N, lengdegrad: 36-16-56E, høyde over havet: 1950 m

Gjeldene værobservasjon

Denne rapporten ble laget for 22 minutter siden, klokken 20:50 UTC
Vind 8 kt fra Vest, skiftende mellom Sørvest og Vest-nordvest
Temperatur 26°C
Luftfuktighet 65%
Trykk 1003 hPa
Sikt 10 km eller mer
ingen skyer under 1500 m og ingen bygeskyer

METAR: LTDA 042050Z 26008KT 230V290 CAVOK 26/19 Q1003 NOSIG

Tid: 00:12 (21:12 UTC)

Varsel

Denne rapporten ble laget for 1 time og 32 minutter siden, klokken 19:40 UTC
Varsel gyldig fra 04. klokken 21 UTC til 05. klokken 06 UTC
Vind 15 kt fra Vest-sørvest
Sikt 10 km eller mer
ingen skyer under 1500 m og ingen bygeskyer

TAF: LTDA 041940Z 0421/0506 24015KT CAVOK

Værobservasjoner og værvarsel for over 4000 flyplasser (METAR- og TAF-rapporter).

Tilgjengelige stasjoner er representert av de røde og gule prikkene på kartet.

Hold musepekeren over prikken for å se navnet på stasjonen.

Klikk så for å se værobservasjoner og -varsler.

For å forandre kartet kan du klikke på den grønne knappen med svart kryss for å zoome inn, på den grønne knappen med strek for å zoome ut, eller på de grønne pilene for å se tilstøtende kart.


METAR-TAF: